Airfield :
LOGIN :

Register | Disclaimer

   EN    FR    IT 

 










Legend :    VFR   Marginal VFR   IFR   Intensive IFR   Very Intensive IFR
Visi :
Ceiling :
>= 8 km
>= 3000ft
5 to 8 km
1000 to 3000 ft
1500m to 5 km
500 to 1000 ft
800 to 1500m
200 to 500 ft
< 800m
< 200 ft
Symbols :   Thunderstorms  Fog  Heavy snow  Heavy precipitations  Wind > 20 kt
SIGMETs :     Misc.  Thunderstorms  Icing  Turbulence  Mountain Waves  Volcanic Ashes







- Airport Elevation : 443 ft
- IATA code : SQQ


EYSA - Siauliai

CURRENT METAR :
  • 230650Z 17007KT 0800 0550SE R14L/1900D FZFG OVC002 M07/M07 Q1013 R14L/29//95 AMB NOSIG

EXPIRED METARs :
  • 230620Z 18008KT 1700 1000SE R14L/P2000U BR OVC002 M07/M07 Q1013 R14L/29//95 AMB NOSIG
  • 230550Z 17007KT 2300 BR OVC002 M07/M07 Q1013 R14L/29//95 AMB NOSIG
  • 230522Z 19006KT 4100 BR OVC002 M07/M07 Q1013 R14L/29//95 AMB NOSIG
  • 230520Z 19007KT 4100 BR OVC003 M07/M07 Q1013 R14L/29//95 YLO2 TEMPO OVC002 AMB
  • 230450Z 20007KT 4800 BR OVC004 M06/M06 Q1013 R14L/29//95 YLO2 NOSIG
  • 230420Z 18006KT 6000 BKN005 M06/M06 Q1012 R14L/29//95 YLO1 TEMPO OVC004 YLO2
  • 230350Z 19007KT 7000 BKN007 M06/M06 Q1013 R14L/29//95 GRN TEMPO OVC006 YLO1

TAF TAF EYSA
Valid from the 23 at 06:00 until the 23 at 15:00 UTC


230501Z 2306/2315 18008KT 6000 OVC005
TEMPO 2306/2310 1500 BR OVC003
BECMG 2310/2312 8000 BKN008 OVC012
No reported NOTAMs for that airfield.



MET'MAP, your aeronautical weather chart ! - Copyright ORBIFLY December 2007 - Disclaimer

ORBIFLY MET'MAP TEAM :

Programming & Development : Alexandra Zaïnal
Concept & Development : Baudouin d'Aumeries
Co-Development & Prog : Marc-Olivier Méhu
Technical & hardware support : Manuel Goepfert

Contact : metmap@orbifly.com




SOURCES & CREDITS :

   NOAA